Time;durP1;ratioP1;P1;durP2;ratioP2;P2;SDS_P1;SDS_P2;PMS_P1;PMS_P2;Temp;Humidity;BMP_temperature;BMP_pressure;BME280_temperature;BME280_humidity;BME280_pressure;Samples;Min_cycle;Max_cycle;Signal;HPM_P1;HPM_P2
2021/06/27 00:02:03;;;;;;;;;8.50;8.50;;;;;-147.17;100.00;59696.56;2;175416800;175416800;-61
2021/06/27 00:04:46;;;;;;;;;25.00;25.00;;;;;-147.17;100.00;59696.56;2411834;28;14919955;-61
2021/06/27 00:07:33;;;;;;;;;;;;;;;-147.17;100.00;59696.56;3;34242587;119538644;-59
2021/06/27 00:20:45;;;;;;;;;22.50;18.50;;;;;-147.17;100.00;59696.56;27890;28;314719365;-60
2021/06/27 00:29:59;;;;;;;;;;;;;;;-147.17;100.00;59696.56;2;261077623;261077623;-59
2021/06/27 00:40:53;;;;;;;;;15.00;15.00;;;;;-147.17;100.00;59696.56;2;315095445;315095445;-60
2021/06/27 00:50:09;;;;;;;;;26.50;16.00;;;;;-147.17;100.00;59696.56;2;261081097;261081097;-59
2021/06/27 01:01:05;;;;;;;;;18.50;18.50;;;;;-147.17;100.00;59696.56;2;315095633;315095633;-61
2021/06/27 01:08:47;;;;;;;;;24.00;24.00;;;;;-147.17;100.00;59696.56;2;261078199;261078199;-59
2021/06/27 01:11:15;;;;;;;;;22.50;22.50;;;;;-147.17;100.00;59696.56;2158132;28;35728621;-60
2021/06/27 01:13:43;;;;;;;;;20.00;19.25;;;;;-147.17;100.00;59696.56;4737425;28;2134759;-59
2021/06/27 01:16:08;;;;;;;;;21.75;21.50;;;;;-147.17;100.00;59696.56;4988485;28;529023;-59
2021/06/27 01:18:34;;;;;;;;;18.00;18.00;;;;;-147.17;100.00;59696.56;4952443;28;1366516;-59
2021/06/27 01:21:07;;;;;;;;;20.75;20.75;;;;;-147.17;100.00;59696.56;4975438;28;498888;-60
2021/06/27 01:23:33;;;;;;;;;22.50;21.75;;;;;-147.17;100.00;59696.56;4992033;28;31863;-60
2021/06/27 01:25:59;;;;;;;;;28.50;27.25;;;;;-147.17;100.00;59696.56;4991537;28;33793;-61
2021/06/27 01:28:24;;;;;;;;;27.00;25.50;;;;;-147.17;100.00;59696.56;5003248;28;31756;-60
2021/06/27 01:30:50;;;;;;;;;29.00;27.00;;;;;-147.17;100.00;59696.56;4995345;28;384621;-59
2021/06/27 01:33:18;;;;;;;;;27.25;26.25;;;;;-147.17;100.00;59696.56;4989995;28;121683;-60
2021/06/27 01:35:45;;;;;;;;;28.00;27.75;;;;;-147.17;100.00;59696.56;5010924;28;34830;-59
2021/06/27 01:38:13;;;;;;;;;26.00;26.00;;;;;-147.17;100.00;59696.56;4941088;28;1547805;-59
2021/06/27 01:40:39;;;;;;;;;26.25;25.25;;;;;-147.17;100.00;59696.56;4984926;28;185907;-59
2021/06/27 01:43:09;;;;;;;;;24.80;24.00;;;;;-147.17;100.00;59696.56;4595885;28;4974097;-59
2021/06/27 01:45:49;;;;;;;;;;;;;;;-147.17;100.00;59696.56;3453511;28;49796671;-60
2021/06/27 01:50:11;;;;;;;;;19.00;19.00;;;;;-147.17;100.00;59696.56;2767671;28;166475161;-59
2021/06/27 01:53:44;;;;;;;;;19.00;19.00;;;;;-147.17;100.00;59696.56;2801768;28;59023302;-59
2021/06/27 01:56:10;;;;;;;;;18.50;17.50;;;;;-147.17;100.00;59696.56;1613644;28;34244802;-60
2021/06/27 01:59:47;;;;;;;;;16.00;16.00;;;;;-147.17;100.00;59696.56;1372746;28;127004435;-59
2021/06/27 02:02:19;;;;;;;;;20.67;20.67;;;;;-147.17;100.00;59696.56;1858279;28;26148756;-60
2021/06/27 02:04:48;;;;;;;;;;;;;;;-147.17;100.00;59696.56;1474192;28;57917391;-60
2021/06/27 02:07:13;;;;;;;;;23.50;23.50;;;;;-147.17;100.00;59696.56;2694499;28;19692530;-60
2021/06/27 02:09:44;;;;;;;;;23.60;22.20;;;;;-147.17;100.00;59696.56;4878020;28;698096;-60
2021/06/27 02:12:10;;;;;;;;;26.00;23.75;;;;;-147.17;100.00;59696.56;4621703;28;2623954;-60
2021/06/27 02:14:40;;;;;;;;;22.00;21.00;;;;;-147.17;100.00;59696.56;4998707;28;32138;-60
2021/06/27 02:17:06;;;;;;;;;25.00;24.25;;;;;-147.17;100.00;59696.56;4999234;28;31830;-60
2021/06/27 02:19:33;;;;;;;;;23.75;22.50;;;;;-147.17;100.00;59696.56;4990232;28;44638;-59
2021/06/27 02:21:59;;;;;;;;;24.50;24.00;;;;;-147.17;100.00;59696.56;5009932;28;50346;-61
2021/06/27 02:24:25;;;;;;;;;25.00;24.25;;;;;-147.17;100.00;59696.56;4964991;28;51050;-60
2021/06/27 02:26:51;;;;;;;;;30.00;29.25;;;;;-147.17;100.00;59696.56;5001205;28;50539;-61
2021/06/27 02:29:16;;;;;;;;;28.00;27.75;;;;;-147.17;100.00;59696.56;4988665;28;51320;-61
2021/06/27 02:31:48;;;;;;;;;26.25;25.00;;;;;-147.17;100.00;59696.56;4991492;28;51962;-59
2021/06/27 02:34:14;;;;;;;;;26.75;26.50;;;;;-147.17;100.00;59696.56;5003934;28;31850;-61
2021/06/27 02:36:39;;;;;;;;;28.25;27.50;;;;;-147.17;100.00;59696.56;4990973;28;31901;-60
2021/06/27 02:39:05;;;;;;;;;28.50;27.50;;;;;-147.17;100.00;59696.56;4993778;28;32676;-59
2021/06/27 02:41:32;;;;;;;;;26.50;26.50;;;;;-147.17;100.00;59696.56;5002427;28;34266;-60
2021/06/27 02:43:58;;;;;;;;;25.00;25.00;;;;;-147.17;100.00;59696.56;5009899;28;32354;-59
2021/06/27 02:46:23;;;;;;;;;30.00;26.75;;;;;-147.17;100.00;59696.56;4997796;28;32981;-60
2021/06/27 02:48:48;;;;;;;;;26.00;25.75;;;;;-147.17;100.00;59696.56;4990638;28;32404;-60
2021/06/27 02:51:14;;;;;;;;;28.75;27.25;;;;;-147.17;100.00;59696.56;4993685;28;32370;-60
2021/06/27 02:53:39;;;;;;;;;26.50;24.75;;;;;-147.17;100.00;59696.56;4990848;28;31743;-60
2021/06/27 02:56:07;;;;;;;;;20.75;20.75;;;;;-147.17;100.00;59696.56;4990627;28;31845;-60
2021/06/27 02:58:41;;;;;;;;;24.75;24.25;;;;;-147.17;100.00;59696.56;4993643;28;31748;-60
2021/06/27 03:01:08;;;;;;;;;25.25;24.50;;;;;-147.17;100.00;59696.56;4990015;28;32891;-60
2021/06/27 03:03:33;;;;;;;;;21.75;21.75;;;;;-147.17;100.00;59696.56;4996668;28;31920;-60
2021/06/27 03:05:58;;;;;;;;;22.00;22.00;;;;;-147.17;100.00;59696.56;5015979;28;31850;-59
2021/06/27 03:08:24;;;;;;;;;26.75;25.50;;;;;-147.17;100.00;59696.56;5010240;28;32053;-60
2021/06/27 03:10:49;;;;;;;;;26.50;25.00;;;;;-147.17;100.00;59696.56;5009815;28;42957;-59
2021/06/27 03:13:15;;;;;;;;;27.50;26.75;;;;;-147.17;100.00;59696.56;5004537;28;50371;-59
2021/06/27 03:15:40;;;;;;;;;25.25;25.25;;;;;-147.17;100.00;59696.56;5007025;28;50986;-59
2021/06/27 03:18:05;;;;;;;;;25.75;24.75;;;;;-147.17;100.00;59696.56;4990581;28;32063;-59
2021/06/27 03:20:31;;;;;;;;;28.75;27.50;;;;;-147.17;100.00;59696.56;4979512;28;34712;-59
2021/06/27 03:22:56;;;;;;;;;24.25;24.25;;;;;-147.17;100.00;59696.56;5010020;28;31976;-60
2021/06/27 03:25:25;;;;;;;;;27.75;27.00;;;;;-147.17;100.00;59696.56;4992205;28;32288;-60
2021/06/27 03:27:53;;;;;;;;;27.25;26.50;;;;;-147.17;100.00;59696.56;5008822;28;32075;-59
2021/06/27 03:30:19;;;;;;;;;24.00;22.00;;;;;-147.17;100.00;59696.56;5008954;28;32912;-60
2021/06/27 03:32:45;;;;;;;;;23.25;22.75;;;;;-147.17;100.00;59696.56;5009648;28;31807;-60
2021/06/27 03:35:11;;;;;;;;;14.50;14.50;;;;;-147.17;100.00;59696.56;5011129;28;32574;-60
2021/06/27 03:37:39;;;;;;;;;22.25;21.75;;;;;-147.17;100.00;59696.56;5026607;28;31206;-60
2021/06/27 03:40:05;;;;;;;;;21.25;20.75;;;;;-147.17;100.00;59696.56;4999868;28;31171;-60
2021/06/27 03:42:30;;;;;;;;;25.75;24.75;;;;;-147.17;100.00;59696.56;5010866;28;11546;-61
2021/06/27 03:44:56;;;;;;;;;24.00;24.00;;;;;-147.17;100.00;59696.56;4989382;28;31398;-60
2021/06/27 03:47:23;;;;;;;;;23.25;20.75;;;;;-147.17;100.00;59696.56;5002257;28;31839;-60
2021/06/27 03:49:49;;;;;;;;;20.50;20.00;;;;;-147.17;100.00;59696.56;5006424;28;31729;-60
2021/06/27 03:52:14;;;;;;;;;22.50;22.25;;;;;-147.17;100.00;59696.56;4992547;28;27108;-60
2021/06/27 03:54:39;;;;;;;;;25.75;24.75;;;;;-147.17;100.00;59696.56;4996890;28;50571;-60
2021/06/27 03:57:05;;;;;;;;;23.25;23.00;;;;;-147.17;100.00;59696.56;4993359;28;50380;-60
2021/06/27 03:59:31;;;;;;;;;21.25;21.25;;;;;-147.17;100.00;59696.56;4977901;28;33680;-60
2021/06/27 04:01:56;;;;;;;;;25.75;25.50;;;;;-147.17;100.00;59696.56;4993008;28;38920;-61
2021/06/27 04:04:21;;;;;;;;;24.00;24.00;;;;;-147.17;100.00;59696.56;4989781;28;41497;-60
2021/06/27 04:06:47;;;;;;;;;23.25;22.50;;;;;-147.17;100.00;59696.56;4986046;28;50279;-60
2021/06/27 04:09:12;;;;;;;;;27.75;27.25;;;;;-147.17;100.00;59696.56;4988594;28;50263;-58
2021/06/27 04:11:37;;;;;;;;;23.75;23.75;;;;;-147.17;100.00;59696.56;4967555;28;50452;-59
2021/06/27 04:14:03;;;;;;;;;24.25;23.25;;;;;-147.17;100.00;59696.56;4998432;28;50475;-60
2021/06/27 04:16:29;;;;;;;;;21.00;20.75;;;;;-147.17;100.00;59696.56;5003896;28;42261;-60
2021/06/27 04:18:55;;;;;;;;;21.75;21.75;;;;;-147.17;100.00;59696.56;5014325;28;50926;-60
2021/06/27 04:21:20;;;;;;;;;23.00;21.00;;;;;-147.17;100.00;59696.56;5001233;28;50363;-60
2021/06/27 04:23:46;;;;;;;;;24.25;23.00;;;;;-147.17;100.00;59696.56;4995983;28;50959;-60
2021/06/27 04:26:11;;;;;;;;;24.75;24.75;;;;;-147.17;100.00;59696.56;4982453;28;51306;-60
2021/06/27 04:28:37;;;;;;;;;26.75;23.75;;;;;-147.17;100.00;59696.56;4993807;28;50863;-60
2021/06/27 04:31:03;;;;;;;;;22.75;22.25;;;;;-147.17;100.00;59696.56;4990206;28;51166;-60
2021/06/27 04:33:28;;;;;;;;;26.50;24.75;;;;;-147.17;100.00;59696.56;4980256;28;51185;-58
2021/06/27 04:35:53;;;;;;;;;22.33;22.33;;;;;-147.17;100.00;59696.56;4955123;28;50853;-59
2021/06/27 04:38:19;;;;;;;;;22.50;22.50;;;;;-147.17;100.00;59696.56;4975101;28;51862;-60
2021/06/27 04:40:45;;;;;;;;;21.00;19.75;;;;;-147.17;100.00;59696.56;4972588;28;51091;-60
2021/06/27 04:43:11;;;;;;;;;25.00;23.50;;;;;-147.17;100.00;59696.56;4972765;28;50974;-58
2021/06/27 04:45:40;;;;;;;;;24.00;21.00;;;;;-147.17;100.00;59696.56;4972467;28;51061;-60
2021/06/27 04:48:06;;;;;;;;;25.50;24.75;;;;;-147.17;100.00;59696.56;4977670;28;50961;-60
2021/06/27 04:50:32;;;;;;;;;24.25;24.00;;;;;-147.17;100.00;59696.56;4973126;28;51189;-60
2021/06/27 04:52:58;;;;;;;;;23.50;23.50;;;;;-147.17;100.00;59696.56;4972614;28;51277;-60
2021/06/27 04:55:23;;;;;;;;;27.00;24.75;;;;;-147.17;100.00;59696.56;4972735;28;51125;-60
2021/06/27 04:57:49;;;;;;;;;25.50;23.25;;;;;-147.17;100.00;59696.56;4972387;28;50977;-60
2021/06/27 05:00:15;;;;;;;;;27.00;24.25;;;;;-147.17;100.00;59696.56;4972011;28;51155;-59
2021/06/27 05:02:41;;;;;;;;;24.50;23.50;;;;;-147.17;100.00;59696.56;4955171;28;51186;-60
2021/06/27 05:05:07;;;;;;;;;22.25;21.25;;;;;-147.17;100.00;59696.56;4971737;28;51438;-60
2021/06/27 05:07:33;;;;;;;;;21.25;21.25;;;;;-147.17;100.00;59696.56;4972006;28;51028;-60
2021/06/27 05:09:58;;;;;;;;;25.25;25.00;;;;;-147.17;100.00;59696.56;4972055;28;50959;-60
2021/06/27 05:12:25;;;;;;;;;25.00;24.25;;;;;-147.17;100.00;59696.56;4972381;28;51012;-60
2021/06/27 05:14:50;;;;;;;;;24.00;23.75;;;;;-147.17;100.00;59696.56;4982627;28;50863;-60
2021/06/27 05:17:16;;;;;;;;;24.50;23.25;;;;;-147.17;100.00;59696.56;4979215;28;52000;-60
2021/06/27 05:19:41;;;;;;;;;22.00;21.50;;;;;-147.17;100.00;59696.56;4975500;28;50951;-60
2021/06/27 05:22:07;;;;;;;;;25.75;25.00;;;;;-147.17;100.00;59696.56;4975163;28;51030;-60
2021/06/27 05:24:32;;;;;;;;;25.25;25.25;;;;;-147.17;100.00;59696.56;4995170;28;51446;-60
2021/06/27 05:26:57;;;;;;;;;25.25;24.25;;;;;-147.17;100.00;59696.56;4976938;28;53822;-60
2021/06/27 05:29:22;;;;;;;;;23.00;22.25;;;;;-147.17;100.00;59696.56;4977118;28;50943;-60
2021/06/27 05:31:48;;;;;;;;;25.50;25.25;;;;;-147.17;100.00;59696.56;4994867;28;51260;-60
2021/06/27 05:34:13;;;;;;;;;23.50;22.50;;;;;-147.17;100.00;59696.56;4994904;28;50934;-60
2021/06/27 05:36:39;;;;;;;;;21.25;21.25;;;;;-147.17;100.00;59696.56;4993412;28;51741;-60
2021/06/27 05:39:06;;;;;;;;;24.00;23.50;;;;;-147.17;100.00;59696.56;4976930;28;51595;-58
2021/06/27 05:41:31;;;;;;;;;22.50;22.50;;;;;-147.17;100.00;59696.56;4975575;28;51045;-60
2021/06/27 05:43:57;;;;;;;;;22.75;22.25;;;;;-147.17;100.00;59696.56;4975010;28;51349;-60
2021/06/27 05:46:22;;;;;;;;;20.50;19.00;;;;;-147.17;100.00;59696.56;4974865;28;51006;-60
2021/06/27 05:48:47;;;;;;;;;22.00;21.00;;;;;-147.17;100.00;59696.56;4974910;28;51055;-60
2021/06/27 05:51:13;;;;;;;;;21.50;21.00;;;;;-147.17;100.00;59696.56;4975353;28;51050;-60
2021/06/27 05:53:39;;;;;;;;;14.75;14.25;;;;;-147.17;100.00;59696.56;4974993;28;50924;-60
2021/06/27 05:56:10;;;;;;;;;26.50;24.25;;;;;-147.17;100.00;59696.56;4974799;28;51103;-59
2021/06/27 05:58:41;;;;;;;;;25.25;24.75;;;;;-147.17;100.00;59696.56;4958298;28;51061;-60
2021/06/27 06:01:08;;;;;;;;;25.50;23.50;;;;;-147.17;100.00;59696.56;4974395;28;51080;-60
2021/06/27 06:03:35;;;;;;;;;24.50;23.50;;;;;-147.17;100.00;59696.56;4975122;28;50872;-59
2021/06/27 06:06:00;;;;;;;;;19.67;19.67;;;;;-147.17;100.00;59696.56;4974313;28;51154;-60
2021/06/27 06:08:26;;;;;;;;;23.00;22.00;;;;;-147.17;100.00;59696.56;4974489;28;51149;-61
2021/06/27 06:10:53;;;;;;;;;22.50;21.75;;;;;-147.17;100.00;59696.56;4974480;28;50942;-60
2021/06/27 06:13:18;;;;;;;;;21.75;20.00;;;;;-147.17;100.00;59696.56;4974959;28;50997;-60
2021/06/27 06:15:43;;;;;;;;;23.50;21.75;;;;;-147.17;100.00;59696.56;4985687;28;58923;-60
2021/06/27 06:18:09;;;;;;;;;14.75;12.75;;;;;-147.17;100.00;59696.56;4974706;28;51147;-61
2021/06/27 06:20:34;;;;;;;;;22.25;21.50;;;;;-147.17;100.00;59696.56;4986358;28;51015;-60
2021/06/27 06:23:00;;;;;;;;;23.25;22.50;;;;;-147.17;100.00;59696.56;4957291;28;51207;-59
2021/06/27 06:25:25;;;;;;;;;17.75;17.75;;;;;-147.17;100.00;59696.56;4974181;28;51970;-59
2021/06/27 06:27:50;;;;;;;;;23.00;21.00;;;;;-147.17;100.00;59696.56;4974342;28;51027;-59
2021/06/27 06:30:16;;;;;;;;;22.50;22.00;;;;;-147.17;100.00;59696.56;4974256;28;51037;-59
2021/06/27 06:32:42;;;;;;;;;22.50;22.50;;;;;-147.17;100.00;59696.56;4963400;28;52796;-59
2021/06/27 06:35:08;;;;;;;;;22.75;22.75;;;;;-147.17;100.00;59696.56;4974026;28;51629;-61
2021/06/27 06:37:33;;;;;;;;;24.75;23.50;;;;;-147.17;100.00;59696.56;4987153;28;51043;-60
2021/06/27 06:39:58;;;;;;;;;26.00;24.50;;;;;-147.17;100.00;59696.56;4977970;28;51255;-60
2021/06/27 06:42:24;;;;;;;;;23.50;22.75;;;;;-147.17;100.00;59696.56;4974830;28;50976;-62
2021/06/27 06:44:49;;;;;;;;;24.75;24.00;;;;;-147.17;100.00;59696.56;4973883;28;51249;-61
2021/06/27 06:47:14;;;;;;;;;24.00;24.00;;;;;-147.17;100.00;59696.56;4974517;28;51009;-62
2021/06/27 06:49:40;;;;;;;;;22.00;18.00;;;;;-147.17;100.00;59696.56;4974125;28;51049;-60
2021/06/27 06:52:05;;;;;;;;;23.75;21.75;;;;;-147.17;100.00;59696.56;4973689;28;51209;-60
2021/06/27 06:54:31;;;;;;;;;22.00;22.00;;;;;-147.17;100.00;59696.56;4973372;28;52004;-60
2021/06/27 06:56:56;;;;;;;;;22.33;21.67;;;;;-147.17;100.00;59696.56;4977750;28;51048;-60
2021/06/27 06:59:22;;;;;;;;;21.25;21.25;;;;;-147.17;100.00;59696.56;4986060;28;51579;-61
2021/06/27 07:01:47;;;;;;;;;24.00;22.67;;;;;-147.17;100.00;59696.56;4990631;28;51263;-60
2021/06/27 07:04:13;;;;;;;;;24.50;24.25;;;;;-147.17;100.00;59696.56;4974605;28;53833;-61
2021/06/27 07:06:38;;;;;;;;;22.75;22.75;;;;;-147.17;100.00;59696.56;4992712;28;51170;-61
2021/06/27 07:09:04;;;;;;;;;25.25;24.25;;;;;-147.17;100.00;59696.56;4985816;28;51009;-61
2021/06/27 07:11:29;;;;;;;;;23.00;22.75;;;;;-147.17;100.00;59696.56;5002429;28;51017;-61
2021/06/27 07:13:54;;;;;;;;;28.25;24.75;;;;;-147.17;100.00;59696.56;4987932;28;51732;-61
2021/06/27 07:16:20;;;;;;;;;26.33;24.67;;;;;-147.17;100.00;59696.56;4991289;28;51038;-62
2021/06/27 07:18:45;;;;;;;;;22.50;21.50;;;;;-147.17;100.00;59696.56;4969498;28;51124;-61
2021/06/27 07:21:11;;;;;;;;;19.67;19.00;;;;;-147.17;100.00;59696.56;4973561;28;51061;-61
2021/06/27 07:23:36;;;;;;;;;24.00;22.75;;;;;-147.17;100.00;59696.56;4965049;28;51034;-60
2021/06/27 07:26:01;;;;;;;;;19.67;19.33;;;;;-147.17;100.00;59696.56;4974188;28;51019;-60
2021/06/27 07:28:27;;;;;;;;;26.75;24.25;;;;;-147.17;100.00;59696.56;4983593;28;52017;-61
2021/06/27 07:30:52;;;;;;;;;21.67;21.33;;;;;-147.17;100.00;59696.56;4978588;28;50915;-60
2021/06/27 07:33:18;;;;;;;;;20.50;20.00;;;;;-147.17;100.00;59696.56;4975235;28;52051;-62
2021/06/27 07:35:44;;;;;;;;;25.00;24.33;;;;;-147.17;100.00;59696.56;4984809;28;51031;-61
2021/06/27 07:38:09;;;;;;;;;23.00;22.33;;;;;-147.17;100.00;59696.56;4979702;28;51160;-61
2021/06/27 07:40:34;;;;;;;;;25.00;23.00;;;;;-147.17;100.00;59696.56;4979764;28;52035;-60
2021/06/27 07:43:00;;;;;;;;;23.33;23.33;;;;;-147.17;100.00;59696.56;4977936;28;52474;-60
2021/06/27 07:45:26;;;;;;;;;20.33;20.33;;;;;-147.17;100.00;59696.56;4989286;28;52241;-61
2021/06/27 07:47:51;;;;;;;;;21.67;20.67;;;;;-147.17;100.00;59696.56;4978066;28;51632;-60
2021/06/27 07:50:16;;;;;;;;;23.67;22.00;;;;;-147.17;100.00;59696.56;4973145;28;51083;-61
2021/06/27 07:52:42;;;;;;;;;21.00;20.33;;;;;-147.17;100.00;59696.56;4978683;28;51133;-61
2021/06/27 07:55:08;;;;;;;;;23.67;22.33;;;;;-147.17;100.00;59696.56;4972518;28;51067;-60
2021/06/27 07:57:34;;;;;;;;;21.75;20.25;;;;;-147.17;100.00;59696.56;4984892;28;51184;-61
2021/06/27 08:00:00;;;;;;;;;20.67;20.67;;;;;-147.17;100.00;59696.56;4977114;28;51303;-60
2021/06/27 08:02:25;;;;;;;;;20.67;20.67;;;;;-147.17;100.00;59696.56;4976215;28;51133;-61
2021/06/27 08:04:51;;;;;;;;;21.67;21.33;;;;;-147.17;100.00;59696.56;4974211;28;52003;-60
2021/06/27 08:07:16;;;;;;;;;19.67;19.33;;;;;-147.17;100.00;59696.56;4983118;28;51343;-60
2021/06/27 08:09:41;;;;;;;;;20.67;20.67;;;;;-147.17;100.00;59696.56;4955583;28;51152;-61
2021/06/27 08:12:07;;;;;;;;;20.00;20.00;;;;;-147.17;100.00;59696.56;4976356;28;52012;-59
2021/06/27 08:14:33;;;;;;;;;20.67;20.00;;;;;-147.17;100.00;59696.56;4982426;28;51215;-60
2021/06/27 08:16:58;;;;;;;;;22.00;20.33;;;;;-147.17;100.00;59696.56;4987146;28;51595;-59
2021/06/27 08:19:24;;;;;;;;;20.00;20.00;;;;;-147.17;100.00;59696.56;4985294;28;50812;-59
2021/06/27 08:21:49;;;;;;;;;21.67;21.00;;;;;-147.17;100.00;59696.56;4979976;28;51148;-59
2021/06/27 08:24:14;;;;;;;;;21.67;20.00;;;;;-147.17;100.00;59696.56;4989917;28;51130;-59
2021/06/27 08:26:40;;;;;;;;;20.67;20.00;;;;;-147.17;100.00;59696.56;4991670;28;50933;-59
2021/06/27 08:29:05;;;;;;;;;20.67;18.67;;;;;-147.17;100.00;59696.56;4986153;28;51290;-60
2021/06/27 08:31:31;;;;;;;;;21.33;20.33;;;;;-147.17;100.00;59696.56;4993024;28;51672;-61
2021/06/27 08:33:57;;;;;;;;;18.67;18.00;;;;;-147.17;100.00;59696.56;4989035;28;51129;-63
2021/06/27 08:36:23;;;;;;;;;21.00;21.00;;;;;-147.17;100.00;59696.56;4984758;28;51200;-60
2021/06/27 08:38:48;;;;;;;;;21.00;20.75;;;;;-147.17;100.00;59696.56;4979186;28;51141;-60
2021/06/27 08:41:18;;;;;;;;;21.67;20.67;;;;;-147.17;100.00;59696.56;4988736;28;51890;-61
2021/06/27 08:43:44;;;;;;;;;26.00;24.33;;;;;-147.17;100.00;59696.56;4990502;28;50992;-61
2021/06/27 08:46:12;;;;;;;;;23.33;20.33;;;;;-147.17;100.00;59696.56;4990714;28;51109;-61
2021/06/27 08:48:39;;;;;;;;;24.00;23.33;;;;;-147.17;100.00;59696.56;4970517;28;51596;-60
2021/06/27 08:51:07;;;;;;;;;25.67;23.33;;;;;-147.17;100.00;59696.56;4990572;28;50934;-60
2021/06/27 08:53:34;;;;;;;;;20.00;19.33;;;;;-147.17;100.00;59696.56;4986152;28;51173;-60
2021/06/27 08:56:08;;;;;;;;;23.67;22.67;;;;;-147.17;100.00;59696.56;4993478;28;51037;-60
2021/06/27 08:58:44;;;;;;;;;25.00;22.50;;;;;-147.17;100.00;59696.56;4992595;28;51275;-61
2021/06/27 09:01:23;;;;;;;;;23.25;23.00;;;;;-147.17;100.00;59696.56;4977261;28;52426;-61
2021/06/27 09:03:51;;;;;;;;;26.75;25.00;;;;;-147.17;100.00;59696.56;4994075;28;50966;-61
2021/06/27 09:06:27;;;;;;;;;28.25;26.75;;;;;-147.17;100.00;59696.56;4994109;28;51065;-61
2021/06/27 09:09:18;;;;;;;;;50.25;42.25;;;;;-147.17;100.00;59696.56;4994127;28;51299;-61
2021/06/27 09:12:06;;;;;;;;;28.75;28.50;;;;;-147.17;100.00;59696.56;4990869;28;53153;-61
2021/06/27 09:14:38;;;;;;;;;29.00;27.50;;;;;-147.17;100.00;59696.56;4993190;28;51049;-59
2021/06/27 09:17:15;;;;;;;;;26.75;26.25;;;;;-147.17;100.00;59696.56;4994136;28;51081;-61
2021/06/27 09:19:55;;;;;;;;;27.75;26.50;;;;;-147.17;100.00;59696.56;4959192;28;51325;-61
2021/06/27 09:22:27;;;;;;;;;28.50;28.25;;;;;-147.17;100.00;59696.56;4956584;28;51911;-61
2021/06/27 09:24:53;;;;;;;;;28.50;28.00;;;;;-147.17;100.00;59696.56;4957912;28;51119;-61
2021/06/27 09:27:23;;;;;;;;;28.00;27.00;;;;;-147.17;100.00;59696.56;4974978;28;50969;-60
2021/06/27 09:29:50;;;;;;;;;32.50;30.50;;;;;-147.17;100.00;59696.56;4974455;28;51118;-60
2021/06/27 09:32:24;;;;;;;;;22.75;22.25;;;;;-147.17;100.00;59696.56;4974357;28;52318;-60
2021/06/27 09:34:50;;;;;;;;;27.25;26.00;;;;;-147.17;100.00;59696.56;4975170;28;51192;-59
2021/06/27 09:37:26;;;;;;;;;30.00;27.75;;;;;-147.17;100.00;59696.56;4976373;28;50962;-62
2021/06/27 09:40:04;;;;;;;;;23.25;22.75;;;;;-147.17;100.00;59696.56;4958616;28;50916;-60
2021/06/27 09:42:30;;;;;;;;;31.00;30.00;;;;;-147.17;100.00;59696.56;4976488;28;51265;-60
2021/06/27 09:45:08;;;;;;;;;26.50;25.50;;;;;-147.17;100.00;59696.56;4994214;28;51089;-61
2021/06/27 09:47:37;;;;;;;;;25.25;24.25;;;;;-147.17;100.00;59696.56;4991784;28;51114;-61
2021/06/27 09:50:29;;;;;;;;;31.25;29.25;;;;;-147.17;100.00;59696.56;4995094;28;51191;-60
2021/06/27 09:52:55;;;;;;;;;27.75;27.25;;;;;-147.17;100.00;59696.56;4985408;28;52690;-58
2021/06/27 09:55:20;;;;;;;;;26.50;26.00;;;;;-147.17;100.00;59696.56;4991480;28;50982;-60
2021/06/27 09:57:47;;;;;;;;;26.50;26.50;;;;;-147.17;100.00;59696.56;4983153;28;51021;-61
2021/06/27 10:00:22;;;;;;;;;28.50;27.75;;;;;-147.17;100.00;59696.56;4956096;28;51168;-61
2021/06/27 10:03:03;;;;;;;;;30.00;29.00;;;;;-147.17;100.00;59696.56;4975373;28;51641;-62
2021/06/27 10:05:28;;;;;;;;;28.25;26.50;;;;;-147.17;100.00;59696.56;5002215;28;50991;-62
2021/06/27 10:07:55;;;;;;;;;23.25;23.25;;;;;-147.17;100.00;59696.56;4993457;28;51085;-61
2021/06/27 10:10:21;;;;;;;;;33.00;30.50;;;;;-147.17;100.00;59696.56;4993641;28;51307;-60
2021/06/27 10:12:47;;;;;;;;;28.25;27.25;;;;;-147.17;100.00;59696.56;4975609;28;51748;-60
2021/06/27 10:15:14;;;;;;;;;33.00;30.75;;;;;-147.17;100.00;59696.56;4986097;28;51134;-61
2021/06/27 10:17:41;;;;;;;;;28.00;27.25;;;;;-147.17;100.00;59696.56;4970477;28;51207;-61
2021/06/27 10:20:09;;;;;;;;;28.75;27.75;;;;;-147.17;100.00;59696.56;4974010;28;51269;-64
2021/06/27 10:22:35;;;;;;;;;26.25;25.00;;;;;-147.17;100.00;59696.56;4966289;28;51492;-63
2021/06/27 10:25:06;;;;;;;;;34.50;30.75;;;;;-147.17;100.00;59696.56;4984205;28;51238;-62
2021/06/27 10:27:33;;;;;;;;;25.75;25.25;;;;;-147.17;100.00;59696.56;4984301;28;51183;-60
2021/06/27 10:30:00;;;;;;;;;29.25;28.00;;;;;-147.17;100.00;59696.56;4989967;28;51194;-60
2021/06/27 10:32:26;;;;;;;;;25.75;24.50;;;;;-147.17;100.00;59696.56;4974657;28;51487;-61
2021/06/27 10:34:55;;;;;;;;;24.50;23.50;;;;;-147.17;100.00;59696.56;4974642;28;51261;-59
2021/06/27 10:37:35;;;;;;;;;28.50;26.50;;;;;-147.17;100.00;59696.56;4984069;28;51044;-61
2021/06/27 10:40:09;;;;;;;;;32.25;30.25;;;;;-147.17;100.00;59696.56;4991246;28;51082;-61
2021/06/27 10:42:47;;;;;;;;;27.00;26.50;;;;;-147.17;100.00;59696.56;4970090;28;53537;-59
2021/06/27 10:45:12;;;;;;;;;29.50;27.75;;;;;-147.17;100.00;59696.56;4987328;28;51134;-61
2021/06/27 10:47:38;;;;;;;;;24.25;24.25;;;;;-147.17;100.00;59696.56;4991361;28;51080;-61
2021/06/27 10:50:05;;;;;;;;;26.50;25.00;;;;;-147.17;100.00;59696.56;4973896;28;50865;-60
2021/06/27 10:52:55;;;;;;;;;18.67;18.33;;;;;-147.17;100.00;59696.56;4978176;28;51154;-60
2021/06/27 10:55:26;;;;;;;;;25.50;25.00;;;;;-147.17;100.00;59696.56;4973217;28;51030;-60
2021/06/27 10:58:10;;;;;;;;;24.75;24.50;;;;;-147.17;100.00;59696.56;4973044;28;51172;-60
2021/06/27 11:01:08;;;;;;;;;25.00;24.75;;;;;-147.17;100.00;59696.56;4972925;28;50961;-61
2021/06/27 11:03:45;;;;;;;;;21.25;21.25;;;;;-147.17;100.00;59696.56;4983394;28;52331;-61
2021/06/27 11:06:16;;;;;;;;;22.50;22.50;;;;;-147.17;100.00;59696.56;4992882;28;50954;-60
2021/06/27 11:08:50;;;;;;;;;25.25;23.25;;;;;-147.17;100.00;59696.56;4993075;28;52199;-61
2021/06/27 11:11:20;;;;;;;;;25.25;24.00;;;;;-147.17;100.00;59696.56;4992536;28;51006;-62
2021/06/27 11:14:10;;;;;;;;;25.25;25.25;;;;;-147.17;100.00;59696.56;4983874;28;52752;-60
2021/06/27 11:17:01;;;;;;;;;23.00;22.67;;;;;-147.17;100.00;59696.56;4971929;28;51078;-61
2021/06/27 11:19:45;;;;;;;;;26.33;25.67;;;;;-147.17;100.00;59696.56;4983663;28;50950;-60
2021/06/27 11:22:22;;;;;;;;;27.25;26.50;;;;;-147.17;100.00;59696.56;4979922;28;50970;-59
2021/06/27 11:24:50;;;;;;;;;27.50;27.50;;;;;-147.17;100.00;59696.56;4976684;28;51827;-61
2021/06/27 11:27:36;;;;;;;;;28.25;27.25;;;;;-147.17;100.00;59696.56;4971955;28;51145;-61
2021/06/27 11:30:25;;;;;;;;;29.00;28.25;;;;;-147.17;100.00;59696.56;4972368;28;51175;-61
2021/06/27 11:32:50;;;;;;;;;24.75;24.75;;;;;-147.17;100.00;59696.56;4975265;28;51177;-62
2021/06/27 11:35:32;;;;;;;;;20.67;20.67;;;;;-147.17;100.00;59696.56;4991919;28;51588;-61
2021/06/27 11:37:58;;;;;;;;;22.67;22.33;;;;;-147.17;100.00;59696.56;4983632;28;50986;-61
2021/06/27 11:40:43;;;;;;;;;25.00;25.00;;;;;-147.17;100.00;59696.56;4972406;28;51122;-61
2021/06/27 11:43:09;;;;;;;;;24.25;22.75;;;;;-147.17;100.00;59696.56;4972315;28;50970;-61
2021/06/27 11:45:37;;;;;;;;;22.00;22.00;;;;;-147.17;100.00;59696.56;4971647;28;51043;-62
2021/06/27 11:48:05;;;;;;;;;24.00;24.00;;;;;-147.17;100.00;59696.56;4954921;28;50952;-61